createdAt,value
2023-05-03T00:02:23.573Z,67.07
2023-05-03T00:04:52.710Z,66.84
2023-05-03T00:07:19.397Z,67.05
2023-05-03T00:09:46.019Z,66.99
2023-05-03T00:12:12.662Z,67.10
2023-05-03T00:14:39.436Z,67.25
2023-05-03T00:17:06.975Z,67.15
2023-05-03T00:19:34.248Z,67.36
2023-05-03T00:22:01.599Z,67.30
2023-05-03T00:24:28.502Z,67.25
2023-05-03T00:26:55.527Z,67.19
2023-05-03T00:29:22.366Z,67.42
2023-05-03T00:31:49.129Z,67.20
2023-05-03T00:34:15.757Z,67.35
2023-05-03T00:36:42.323Z,67.07
2023-05-03T00:39:08.979Z,67.36
2023-05-03T00:41:35.700Z,67.42
2023-05-03T00:44:02.896Z,67.58
2023-05-03T00:46:29.742Z,67.64
2023-05-03T00:48:56.721Z,67.62
2023-05-03T00:51:23.790Z,67.62
2023-05-03T00:53:51.139Z,67.98
2023-05-03T00:56:20.088Z,68.03
2023-05-03T00:58:47.151Z,68.40
2023-05-03T01:01:13.811Z,68.78
2023-05-03T01:03:41.245Z,69.30
2023-05-03T01:06:31.467Z,68.69
2023-05-03T01:09:21.436Z,68.98
2023-05-03T01:12:19.482Z,69.03
2023-05-03T01:15:08.366Z,68.96
2023-05-03T01:17:50.019Z,69.02
2023-05-03T01:20:22.454Z,69.28
2023-05-03T01:22:58.175Z,68.95
2023-05-03T01:25:26.300Z,70.07
2023-05-03T01:27:52.846Z,69.08
2023-05-03T01:30:23.579Z,69.69
2023-05-03T01:32:59.740Z,68.98
2023-05-03T01:35:47.555Z,69.18
2023-05-03T01:38:14.653Z,69.58
2023-05-03T01:40:46.779Z,69.07
2023-05-03T01:43:16.463Z,69.12
2023-05-03T01:45:43.974Z,69.35
2023-05-03T01:48:13.508Z,69.39
2023-05-03T01:50:40.122Z,69.25
2023-05-03T01:53:06.901Z,69.31
2023-05-03T01:55:33.566Z,68.96
2023-05-03T01:58:00.647Z,69.02
2023-05-03T02:00:27.326Z,69.09
2023-05-03T02:02:54.060Z,69.04
2023-05-03T02:05:20.662Z,69.16
2023-05-03T02:07:47.428Z,69.11
2023-05-03T02:10:14.031Z,69.05
2023-05-03T02:12:44.845Z,68.53
2023-05-03T02:15:12.588Z,68.90
2023-05-03T02:17:40.005Z,68.98
2023-05-03T02:20:07.283Z,68.97
2023-05-03T02:22:33.824Z,68.72
2023-05-03T02:25:00.377Z,68.66
2023-05-03T02:27:27.128Z,68.83
2023-05-03T02:29:53.734Z,68.73
2023-05-03T02:32:21.349Z,68.81
2023-05-03T02:34:49.588Z,68.65
2023-05-03T02:37:20.492Z,68.74
2023-05-03T02:39:47.480Z,68.62
2023-05-03T02:42:15.854Z,68.45
2023-05-03T02:44:43.975Z,68.51
2023-05-03T02:47:10.721Z,68.33
2023-05-03T02:49:40.174Z,68.39
2023-05-03T02:52:06.966Z,68.53
2023-05-03T02:54:33.585Z,68.60
2023-05-03T02:57:07.716Z,68.82
2023-05-03T02:59:34.353Z,68.48
2023-05-03T03:02:02.025Z,68.40
2023-05-03T03:04:32.480Z,68.30
2023-05-03T03:06:59.086Z,67.98
2023-05-03T03:09:25.687Z,68.04
2023-05-03T03:11:53.449Z,67.75
2023-05-03T03:14:20.891Z,67.61
2023-05-03T03:16:47.987Z,67.41
2023-05-03T03:19:14.592Z,67.43
2023-05-03T03:21:41.403Z,67.64
2023-05-03T03:24:09.109Z,67.94
2023-05-03T03:26:35.739Z,67.89
2023-05-03T03:29:02.709Z,68.08
2023-05-03T03:31:29.660Z,68.32
2023-05-03T03:33:56.330Z,68.34
2023-05-03T03:36:25.839Z,68.64
2023-05-03T03:38:52.786Z,68.72
2023-05-03T03:41:20.492Z,68.86
2023-05-03T03:43:47.426Z,68.99
2023-05-03T03:46:18.282Z,68.94
2023-05-03T03:48:47.035Z,68.89
2023-05-03T03:51:13.796Z,69.10
2023-05-03T03:53:45.520Z,69.16
2023-05-03T03:56:12.701Z,69.18
2023-05-03T03:58:40.528Z,69.13
2023-05-03T04:01:08.870Z,69.33
2023-05-03T04:03:36.535Z,69.23
2023-05-03T04:06:03.811Z,68.98
2023-05-03T04:08:30.615Z,68.74
2023-05-03T04:10:57.285Z,68.73
2023-05-03T04:13:25.015Z,68.78
2023-05-03T04:15:55.639Z,69.07
2023-05-03T04:18:22.645Z,69.20
2023-05-03T04:20:50.182Z,69.42
2023-05-03T04:23:17.028Z,69.46
2023-05-03T04:25:44.405Z,69.62
2023-05-03T04:28:12.796Z,69.75
2023-05-03T04:30:42.900Z,69.89
2023-05-03T04:33:09.923Z,69.82
2023-05-03T04:35:36.647Z,69.85
2023-05-03T04:38:08.727Z,70.02
2023-05-03T04:40:35.837Z,70.00
2023-05-03T04:43:07.115Z,70.18
2023-05-03T04:45:37.718Z,70.16
2023-05-03T04:48:06.947Z,69.86
2023-05-03T04:50:34.128Z,69.73
2023-05-03T04:53:00.838Z,69.82
2023-05-03T04:55:29.428Z,69.75
2023-05-03T04:57:58.552Z,69.66
2023-05-03T05:00:25.267Z,69.84
2023-05-03T05:02:58.277Z,70.07
2023-05-03T05:05:28.184Z,70.21
2023-05-03T05:07:54.816Z,70.50
2023-05-03T05:10:21.445Z,70.89
2023-05-03T05:12:48.379Z,71.18
2023-05-03T05:15:15.066Z,71.35
2023-05-03T05:17:45.100Z,71.47
2023-05-03T05:20:12.136Z,70.64
2023-05-03T05:22:41.159Z,69.40
2023-05-03T05:25:08.620Z,69.54
2023-05-03T05:27:35.386Z,69.54
2023-05-03T05:30:04.226Z,68.95
2023-05-03T05:32:32.369Z,68.88
2023-05-03T05:34:59.088Z,68.60
2023-05-03T05:37:27.853Z,68.94
2023-05-03T05:39:57.643Z,68.86
2023-05-03T05:42:27.708Z,68.39
2023-05-03T05:44:54.311Z,68.44
2023-05-03T05:47:21.598Z,67.62
2023-05-03T05:49:50.526Z,67.51
2023-05-03T05:52:17.151Z,67.31
2023-05-03T05:54:43.877Z,67.75
2023-05-03T05:57:10.601Z,67.93
2023-05-03T05:59:37.419Z,67.32
2023-05-03T06:02:04.314Z,67.17
2023-05-03T06:04:31.032Z,67.40
2023-05-03T06:06:58.052Z,67.35
2023-05-03T06:09:25.315Z,67.55
2023-05-03T06:11:56.259Z,67.93
2023-05-03T06:14:23.835Z,68.32
2023-05-03T06:16:50.419Z,68.21
2023-05-03T06:19:17.154Z,68.50
2023-05-03T06:21:43.888Z,68.73
2023-05-03T06:24:10.606Z,68.86
2023-05-03T06:26:37.210Z,68.79
2023-05-03T06:29:04.365Z,67.82
2023-05-03T06:31:31.096Z,67.32
2023-05-03T06:33:58.348Z,67.43
2023-05-03T06:36:25.886Z,67.21
2023-05-03T06:38:52.693Z,66.81
2023-05-03T06:41:19.418Z,67.03
2023-05-03T06:43:45.992Z,67.30
2023-05-03T06:46:12.686Z,67.55
2023-05-03T06:48:39.338Z,67.39
2023-05-03T06:51:06.152Z,66.00
2023-05-03T06:53:32.769Z,66.59
2023-05-03T06:55:59.346Z,66.26
2023-05-03T06:58:25.907Z,65.48
2023-05-03T07:00:53.036Z,65.63
2023-05-03T07:03:19.776Z,65.75
2023-05-03T07:05:46.588Z,66.09
2023-05-03T07:08:13.215Z,65.65
2023-05-03T07:10:39.845Z,66.12
2023-05-03T07:13:06.517Z,66.06
2023-05-03T07:15:33.409Z,65.88
2023-05-03T07:18:00.172Z,65.10
2023-05-03T07:20:26.857Z,65.41
2023-05-03T07:22:53.437Z,66.19
2023-05-03T07:25:20.095Z,66.50
2023-05-03T07:27:46.812Z,65.63
2023-05-03T07:30:13.760Z,65.88
2023-05-03T07:32:40.602Z,65.98
2023-05-03T07:35:07.869Z,66.24
2023-05-03T07:37:34.579Z,66.88
2023-05-03T07:40:01.351Z,65.78
2023-05-03T07:42:28.157Z,66.08
2023-05-03T07:44:54.711Z,66.55
2023-05-03T07:47:22.154Z,66.81
2023-05-03T07:49:49.025Z,65.68
2023-05-03T07:52:15.770Z,65.34
2023-05-03T07:54:42.433Z,65.89
2023-05-03T07:57:09.094Z,66.34
2023-05-03T07:59:35.689Z,66.12
2023-05-03T08:02:02.510Z,66.01
2023-05-03T08:04:29.467Z,64.91
2023-05-03T08:06:56.480Z,63.67
2023-05-03T08:09:23.203Z,63.66
2023-05-03T08:11:49.770Z,64.13
2023-05-03T08:14:16.410Z,64.60
2023-05-03T08:16:42.979Z,65.21
2023-05-03T08:19:09.642Z,61.45
2023-05-03T08:21:36.182Z,59.84
2023-05-03T08:24:02.858Z,60.73
2023-05-03T08:26:30.481Z,61.27
2023-05-03T08:28:57.131Z,60.48
2023-05-03T08:31:23.805Z,61.94
2023-05-03T08:33:50.388Z,62.25
2023-05-03T08:36:17.295Z,62.92
2023-05-03T08:38:43.982Z,63.48
2023-05-03T08:41:31.285Z,63.05
2023-05-03T08:44:00.507Z,63.79
2023-05-03T08:46:28.871Z,64.28
2023-05-03T08:48:56.396Z,63.23
2023-05-03T08:51:24.737Z,63.15
2023-05-03T08:53:51.659Z,63.29
2023-05-03T08:56:28.119Z,60.89
2023-05-03T08:58:55.034Z,62.49
2023-05-03T09:01:21.772Z,62.04
2023-05-03T09:03:50.771Z,62.33
2023-05-03T09:06:22.368Z,60.93
2023-05-03T09:08:49.196Z,59.55
2023-05-03T09:11:30.238Z,58.89
2023-05-03T09:14:12.738Z,58.56
2023-05-03T09:16:41.398Z,60.71
2023-05-03T09:19:08.906Z,60.28
2023-05-03T09:21:37.023Z,59.39
2023-05-03T09:24:16.550Z,58.06
2023-05-03T09:26:43.813Z,59.41
2023-05-03T09:29:10.407Z,58.27
2023-05-03T09:31:47.827Z,56.45
2023-05-03T09:34:21.849Z,56.65
2023-05-03T09:36:48.609Z,57.56
2023-05-03T09:39:19.081Z,57.34
2023-05-03T09:41:46.379Z,59.22
2023-05-03T09:44:13.200Z,58.53
2023-05-03T09:46:39.835Z,58.45
2023-05-03T09:49:06.945Z,59.39
2023-05-03T09:51:34.107Z,60.15
2023-05-03T09:54:01.214Z,60.60
2023-05-03T09:56:29.136Z,60.08
2023-05-03T09:58:55.741Z,58.45
2023-05-03T10:01:24.904Z,56.87
2023-05-03T10:03:52.319Z,58.62
2023-05-03T10:06:22.794Z,56.72
2023-05-03T10:08:53.480Z,55.25
2023-05-03T10:11:23.897Z,55.44
2023-05-03T10:13:50.585Z,53.17
2023-05-03T10:16:26.573Z,52.81
2023-05-03T10:18:59.802Z,53.88
2023-05-03T10:21:58.213Z,54.78
2023-05-03T10:24:24.980Z,55.17
2023-05-03T10:26:52.065Z,55.02
2023-05-03T10:29:33.829Z,52.92
2023-05-03T10:32:02.027Z,54.64
2023-05-03T10:34:35.143Z,52.66
2023-05-03T10:37:03.349Z,55.46
2023-05-03T10:39:31.015Z,55.22
2023-05-03T10:42:09.060Z,53.16
2023-05-03T10:44:40.515Z,50.57
2023-05-03T10:47:13.633Z,50.54
2023-05-03T10:49:40.818Z,49.57
2023-05-03T10:52:35.254Z,50.78
2023-05-03T10:55:03.063Z,50.62
2023-05-03T10:57:32.170Z,51.78
2023-05-03T10:59:59.030Z,51.36
2023-05-03T11:02:37.885Z,51.45
2023-05-03T11:05:09.224Z,51.69
2023-05-03T11:07:35.922Z,51.53
2023-05-03T11:10:16.895Z,52.25
2023-05-03T11:12:43.549Z,53.31
2023-05-03T11:15:11.044Z,54.26
2023-05-03T11:17:38.835Z,54.96
2023-05-03T11:20:07.819Z,55.28
2023-05-03T11:22:36.305Z,54.86
2023-05-03T11:25:03.540Z,55.77
2023-05-03T11:27:30.631Z,54.89
2023-05-03T11:29:57.390Z,55.06
2023-05-03T11:32:27.974Z,54.38
2023-05-03T11:34:54.773Z,53.59
2023-05-03T11:37:21.453Z,54.12
2023-05-03T11:39:48.169Z,54.69
2023-05-03T11:42:14.809Z,53.34
2023-05-03T11:44:41.387Z,53.86
2023-05-03T11:47:08.356Z,53.18
2023-05-03T11:49:35.328Z,54.40
2023-05-03T11:52:02.149Z,53.44
2023-05-03T11:54:30.127Z,54.03
2023-05-03T11:56:58.486Z,51.17
2023-05-03T11:59:36.935Z,51.32
2023-05-03T12:02:03.849Z,52.89
2023-05-03T12:04:31.089Z,53.88
2023-05-03T12:06:58.279Z,53.26
2023-05-03T12:09:27.298Z,49.61
2023-05-03T12:11:55.367Z,49.80
2023-05-03T12:14:22.778Z,48.78
2023-05-03T12:16:52.177Z,47.02
2023-05-03T12:19:26.091Z,47.30
2023-05-03T12:22:04.686Z,47.26
2023-05-03T12:24:39.800Z,45.38
2023-05-03T12:27:08.639Z,45.60
2023-05-03T12:29:35.807Z,44.51
2023-05-03T12:32:03.777Z,44.62
2023-05-03T12:34:35.455Z,42.49
2023-05-03T12:37:04.859Z,42.90
2023-05-03T12:39:33.013Z,43.33
2023-05-03T12:44:29.711Z,40.65
2023-05-03T12:47:00.717Z,40.72
2023-05-03T12:49:27.892Z,40.72
2023-05-03T12:52:06.836Z,43.47
2023-05-03T12:54:42.322Z,45.46
2023-05-03T12:57:14.653Z,45.82
2023-05-03T12:59:43.394Z,45.03
2023-05-03T13:07:13.379Z,44.32
2023-05-03T13:12:27.956Z,44.36
2023-05-03T13:14:54.813Z,44.91
2023-05-03T13:17:21.771Z,43.00
2023-05-03T13:19:49.677Z,41.86
2023-05-03T13:22:17.176Z,41.58
2023-05-03T13:24:45.626Z,42.41
2023-05-03T13:27:12.755Z,42.80
2023-05-03T13:29:39.838Z,42.96
2023-05-03T13:32:07.146Z,43.67
2023-05-03T13:34:34.485Z,43.69
2023-05-03T13:37:04.696Z,44.72
2023-05-03T13:39:32.079Z,44.26
2023-05-03T13:41:58.784Z,44.66
2023-05-03T13:44:25.622Z,44.31
2023-05-03T13:46:52.799Z,44.99
2023-05-03T13:49:19.776Z,45.45
2023-05-03T13:51:46.501Z,45.64
2023-05-03T13:54:13.149Z,45.67
2023-05-03T13:56:39.738Z,46.86
2023-05-03T13:59:08.257Z,47.61
2023-05-03T14:01:34.920Z,47.39
2023-05-03T14:04:01.580Z,48.44
2023-05-03T14:06:29.286Z,48.25
2023-05-03T14:08:56.951Z,48.11
2023-05-03T14:11:24.180Z,48.99
2023-05-03T14:13:57.040Z,48.91
2023-05-03T14:16:39.218Z,47.24
2023-05-03T14:19:07.484Z,47.06
2023-05-03T14:21:34.244Z,48.61
2023-05-03T14:24:00.958Z,48.75
2023-05-03T14:26:27.649Z,46.97
2023-05-03T14:28:54.286Z,48.13
2023-05-03T14:31:21.088Z,48.41
2023-05-03T14:33:47.685Z,47.44
2023-05-03T14:36:14.492Z,48.39
2023-05-03T14:38:41.253Z,45.90
2023-05-03T14:41:07.838Z,44.67
2023-05-03T14:43:34.562Z,45.10
2023-05-03T14:46:01.116Z,45.17
2023-05-03T14:48:27.695Z,46.72
2023-05-03T14:50:54.447Z,45.26
2023-05-03T14:53:21.199Z,45.25
2023-05-03T14:55:47.836Z,45.42
2023-05-03T14:58:14.506Z,45.81
2023-05-03T15:00:41.650Z,44.03
2023-05-03T15:03:09.767Z,42.91
2023-05-03T15:05:41.800Z,42.16
2023-05-03T15:08:08.447Z,41.26
2023-05-03T15:10:38.366Z,40.23
2023-05-03T15:13:04.989Z,41.87
2023-05-03T15:15:32.015Z,41.79
2023-05-03T15:17:58.659Z,40.87
2023-05-03T15:20:25.362Z,41.51
2023-05-03T15:22:51.927Z,40.65
2023-05-03T15:25:18.492Z,39.31
2023-05-03T15:27:45.112Z,39.97
2023-05-03T15:30:12.292Z,37.65
2023-05-03T15:32:39.069Z,38.66
2023-05-03T15:35:06.345Z,38.65
2023-05-03T15:37:35.134Z,37.67
2023-05-03T15:40:03.062Z,38.61
2023-05-03T15:42:29.772Z,37.48
2023-05-03T15:44:56.364Z,35.29
2023-05-03T15:47:23.001Z,35.02
2023-05-03T15:49:50.226Z,33.76
2023-05-03T15:52:16.870Z,30.82
2023-05-03T15:54:46.068Z,30.85
2023-05-03T15:57:12.741Z,32.68
2023-05-03T15:59:39.442Z,34.11
2023-05-03T16:02:07.215Z,34.35
2023-05-03T16:04:33.960Z,36.18
2023-05-03T16:07:00.581Z,36.96
2023-05-03T16:09:27.372Z,36.63
2023-05-03T16:11:53.995Z,36.67
2023-05-03T16:14:20.813Z,37.51
2023-05-03T16:16:48.497Z,38.28
2023-05-03T16:19:16.458Z,38.20
2023-05-03T16:21:43.675Z,38.66
2023-05-03T16:24:10.475Z,38.70
2023-05-03T16:26:37.257Z,39.42
2023-05-03T16:29:04.134Z,38.84
2023-05-03T16:31:31.441Z,38.63
2023-05-03T16:33:58.073Z,39.80
2023-05-03T16:36:24.703Z,40.16
2023-05-03T16:38:51.278Z,39.93
2023-05-03T16:41:17.865Z,39.04
2023-05-03T16:43:44.642Z,40.07
2023-05-03T16:46:11.206Z,40.42
2023-05-03T16:48:37.894Z,39.99
2023-05-03T16:51:04.672Z,40.31
2023-05-03T16:53:31.280Z,37.82
2023-05-03T16:55:57.876Z,37.66
2023-05-03T16:58:24.561Z,38.67
2023-05-03T17:00:51.491Z,38.62
2023-05-03T17:03:18.336Z,39.09
2023-05-03T17:05:45.138Z,39.26
2023-05-03T17:08:12.001Z,38.20
2023-05-03T17:10:38.715Z,36.90
2023-05-03T17:13:05.852Z,36.96
2023-05-03T17:15:32.848Z,37.29
2023-05-03T17:18:01.327Z,37.50
2023-05-03T17:20:30.391Z,37.39
2023-05-03T17:22:56.963Z,37.23
2023-05-03T17:25:23.585Z,37.09
2023-05-03T17:27:50.173Z,37.23
2023-05-03T17:30:17.804Z,37.75
2023-05-03T17:32:46.150Z,37.70
2023-05-03T17:35:13.334Z,37.98
2023-05-03T17:37:40.448Z,37.13
2023-05-03T17:40:07.671Z,36.11
2023-05-03T17:42:34.803Z,36.15
2023-05-03T17:45:01.913Z,36.65
2023-05-03T17:47:28.982Z,37.63
2023-05-03T17:49:55.978Z,36.71
2023-05-03T17:52:23.038Z,36.94
2023-05-03T17:54:49.803Z,37.66
2023-05-03T17:57:16.557Z,37.62
2023-05-03T17:59:43.166Z,37.77
2023-05-03T18:02:09.995Z,38.30
2023-05-03T18:04:36.711Z,38.45
2023-05-03T18:07:03.300Z,39.27
2023-05-03T18:09:29.902Z,39.64
2023-05-03T18:11:56.576Z,40.33
2023-05-03T18:14:23.230Z,40.70
2023-05-03T18:16:49.807Z,41.41
2023-05-03T18:19:16.404Z,41.64
2023-05-03T18:21:42.977Z,41.98
2023-05-03T18:24:09.553Z,43.05
2023-05-03T18:26:37.509Z,43.21
2023-05-03T18:29:04.141Z,43.67
2023-05-03T18:31:30.796Z,44.33
2023-05-03T18:33:58.879Z,44.62
2023-05-03T18:36:25.886Z,44.81
2023-05-03T18:38:52.553Z,45.07
2023-05-03T18:41:19.275Z,45.66
2023-05-03T18:43:46.738Z,46.04
2023-05-03T18:46:19.814Z,46.47
2023-05-03T18:48:47.846Z,46.85
2023-05-03T18:51:14.680Z,47.32
2023-05-03T18:53:41.279Z,47.56
2023-05-03T18:56:07.887Z,47.67
2023-05-03T18:58:34.476Z,47.95
2023-05-03T19:01:01.195Z,48.48
2023-05-03T19:03:28.680Z,48.45
2023-05-03T19:06:00.262Z,49.32
2023-05-03T19:08:27.269Z,49.15
2023-05-03T19:10:53.974Z,49.73
2023-05-03T19:13:20.583Z,49.89
2023-05-03T19:15:47.220Z,50.15
2023-05-03T19:18:16.076Z,50.42
2023-05-03T19:20:43.309Z,50.73
2023-05-03T19:23:09.916Z,50.90
2023-05-03T19:25:36.522Z,51.26
2023-05-03T19:28:03.362Z,51.70
2023-05-03T19:30:29.933Z,51.90
2023-05-03T19:32:56.686Z,52.00
2023-05-03T19:35:23.324Z,52.15
2023-05-03T19:37:49.899Z,52.47
2023-05-03T19:40:16.666Z,52.64
2023-05-03T19:42:43.284Z,52.74
2023-05-03T19:45:10.360Z,52.94
2023-05-03T19:47:36.925Z,53.26
2023-05-03T19:50:03.852Z,53.26
2023-05-03T19:52:30.657Z,53.33
2023-05-03T19:54:57.335Z,53.57
2023-05-03T19:57:24.298Z,53.75
2023-05-03T19:59:50.869Z,53.96
2023-05-03T20:02:17.645Z,53.94
2023-05-03T20:04:44.216Z,54.18
2023-05-03T20:07:10.797Z,54.22
2023-05-03T20:09:37.485Z,54.41
2023-05-03T20:12:04.429Z,54.56
2023-05-03T20:14:31.040Z,54.61
2023-05-03T20:16:57.625Z,54.47
2023-05-03T20:19:25.263Z,54.64
2023-05-03T20:21:51.969Z,54.66
2023-05-03T20:24:20.573Z,54.74
2023-05-03T20:26:47.157Z,54.86
2023-05-03T20:29:13.873Z,54.98
2023-05-03T20:31:40.568Z,54.95
2023-05-03T20:34:07.257Z,55.21
2023-05-03T20:36:33.984Z,55.11
2023-05-03T20:39:00.696Z,55.34
2023-05-03T20:41:27.287Z,55.24
2023-05-03T20:43:54.022Z,55.19
2023-05-03T20:46:20.782Z,55.37
2023-05-03T20:48:47.472Z,55.45
2023-05-03T20:51:14.262Z,55.50
2023-05-03T20:53:40.934Z,55.46
2023-05-03T20:56:07.991Z,55.56
2023-05-03T20:58:35.290Z,55.49
2023-05-03T21:01:04.784Z,55.92
2023-05-03T21:03:31.519Z,55.53
2023-05-03T21:05:58.473Z,55.74
2023-05-03T21:08:25.229Z,55.73
2023-05-03T21:10:52.545Z,55.75
2023-05-03T21:13:19.308Z,56.01
2023-05-03T21:15:46.128Z,56.15
2023-05-03T21:18:12.820Z,56.13
2023-05-03T21:20:39.512Z,56.28
2023-05-03T21:23:06.186Z,56.30
2023-05-03T21:25:32.911Z,56.54
2023-05-03T21:27:59.636Z,56.61
2023-05-03T21:30:26.227Z,56.77
2023-05-03T21:32:52.957Z,56.85
2023-05-03T21:35:20.145Z,56.97
2023-05-03T21:37:47.203Z,57.04
2023-05-03T21:40:14.697Z,57.04
2023-05-03T21:42:42.382Z,56.92
2023-05-03T21:45:10.099Z,56.92
2023-05-03T21:47:36.951Z,57.07
2023-05-03T21:50:04.997Z,57.37
2023-05-03T21:52:32.692Z,57.38
2023-05-03T21:54:59.370Z,57.41
2023-05-03T21:57:26.624Z,57.54
2023-05-03T21:59:53.717Z,57.63
2023-05-03T22:02:21.094Z,57.62
2023-05-03T22:04:49.070Z,57.88
2023-05-03T22:07:16.486Z,57.74
2023-05-03T22:09:47.082Z,58.59
2023-05-03T22:12:23.633Z,57.88
2023-05-03T22:14:51.262Z,58.05
2023-05-03T22:17:17.912Z,58.03
2023-05-03T22:19:44.704Z,58.28
2023-05-03T22:22:11.298Z,58.18
2023-05-03T22:24:38.208Z,58.17
2023-05-03T22:27:04.799Z,58.15
2023-05-03T22:29:31.492Z,58.14
2023-05-03T22:31:58.278Z,58.36
2023-05-03T22:34:25.044Z,58.40
2023-05-03T22:36:51.709Z,58.39
2023-05-03T22:39:18.389Z,58.41
2023-05-03T22:41:45.049Z,58.35
2023-05-03T22:44:12.012Z,58.45
2023-05-03T22:46:38.656Z,58.57
2023-05-03T22:49:05.431Z,58.69
2023-05-03T22:51:32.170Z,58.96
2023-05-03T22:53:58.803Z,58.98
2023-05-03T22:56:25.451Z,58.93
2023-05-03T22:58:52.074Z,58.98
2023-05-03T23:01:18.882Z,59.01
2023-05-03T23:03:45.771Z,58.95
2023-05-03T23:06:12.520Z,58.87
2023-05-03T23:08:39.410Z,58.89
2023-05-03T23:11:06.020Z,59.13
2023-05-03T23:13:32.634Z,59.12
2023-05-03T23:15:59.412Z,59.25
2023-05-03T23:18:26.129Z,59.23
2023-05-03T23:20:52.993Z,59.19
2023-05-03T23:23:19.635Z,59.09
2023-05-03T23:25:49.314Z,59.31
2023-05-03T23:28:15.904Z,59.39
2023-05-03T23:30:43.904Z,59.30
2023-05-03T23:33:11.129Z,60.00
2023-05-03T23:35:38.458Z,59.21
2023-05-03T23:38:05.185Z,59.29
2023-05-03T23:40:31.892Z,59.34
2023-05-03T23:42:58.493Z,59.33
2023-05-03T23:45:25.139Z,59.57
2023-05-03T23:47:51.889Z,59.68
2023-05-03T23:50:19.196Z,59.80
2023-05-03T23:52:45.890Z,59.67
2023-05-03T23:55:12.494Z,59.86
2023-05-03T23:57:39.117Z,59.87
